Terminal Aerodrome Forecast
Issued by NWS Louisville, KY

Home | Current Version | Previous Version | Text Only | Print | Product List | Glossary On
Versions: 1 2 3 4 5 6 7 8 9 10 11 12 13 14 15 16 17 18
387
FTUS43 KLMK 052340
TAFSDF
TAF
KSDF 052340Z 0600/0706 08005KT P6SM OVC200
     FM060400 08006KT P6SM BKN025
     FM060600 07006KT 4SM -RA BR OVC007
     FM061200 04004KT 2SM RA BR OVC004
     FM061700 31010KT P6SM OVC012=

USA.gov is the U.S. government's official web portal to all federal, state and local government web resources and services.